Smithville, TX (78957)

10:14 PM CDT on October 25, 2014 (GMT -0500)
Briggs Ranchito | Change Station
CLOSE
Current Station
Personal Weather Station
Location: Smithville, TX
Elevation: 299 ft
Nearby Weather Stations

Elev 299 ft 30.02 °N, 97.18 °W | Updated 4 seconds ago

Clear
Clear
71.6 °F
Feels Like 75 °F
N
1.1
Wind Variable Wind from SSE
Gusts 2.2 mph

Today
High -- | Low -- °F
--% Chance of Precip.
Yesterday
High -- | Low -- °F
Precip. -- in
7:37 AM 6:47 PM
Waxing Crescent, 5% visible
Pressure 30.13 in
Visibility 10.0 miles
Clouds Clear
Heat Index 75 °F
Dew Point 60 °F
Humidity 66%
Rainfall 0.00 in
Snow Depth Not available.
UV 0 out of 12
Pollen 5.50 out of 12
Ozone Good
PM2.5 Good
Flu Activity Local Activity
METAR KGYB 260255Z AUTO 00000KT 10SM CLR 19/15 A3013 RMK AO2 T01900152

More Conditions Fewer Conditions

Pressure 30.13 in
Visibility 10.0 miles
Clouds Clear
Heat Index 75 °F
Dew Point 60 °F
Humidity 66%
Rainfall 0.00 in
Snow Depth Not available.
UV 0 out of 12
Pollen 5.50 out of 12
Ozone Good
PM2.5 Good
Flu Activity Local Activity
METAR KGYB 260255Z AUTO 00000KT 10SM CLR 19/15 A3013 RMK AO2 T01900152

More Conditions Fewer Conditions

10-Day Weather Forecast

Almanac

Astronomy

Oct. 25, 2014 Rise Set
Actual Time 7:37 AM CDT 6:47 PM CDT
Civil Twilight 7:12 AM CDT 7:11 PM CDT
Nautical Twilight 6:44 AM CDT 7:39 PM CDT
Astronomical Twilight 6:16 AM CDT 8:07 PM CDT
Moon 9:12 AM CDT (10/25) 8:17 PM CDT (10/25)
Length of Visible Light 11h 59m
Length of Day
11h 10m
Tomorrow will be 1m 40s shorter.
Waxing Crescent, 5% of the Moon is Illuminated
Today
Waxing Crescent
Oct 30
First Quarter
Nov 6
Full
Nov 14
Last Quarter
Nov 22
New

Today's Extremes

State Highs State Lows

Community

WunderPhotos

Upload Photos

1,765,093 photos uploaded!

Nearby

Air Quality

  Air Quality AQ Index Pollutant
Yesterday Moderate
OZONE
Yesterday Moderate
PM2.5
Current Good
OZONE
Current Good
PM2.5
Saturday Moderate
OZONE
Saturday Good
PM10
Sunday Moderate
OZONE
Sunday Good
PM10
Monday Good
OZONE
Monday Good
PM10
Tuesday Good
OZONE
Tuesday Good
PM10

Snow Depth

Station Depth Elevation
No new snow has been reported.

Earthquake Activity

City Distance Mag. Time & Date
No recent earthquake activity has been reported nearby.
Minimum magnitude displayed is 2.5.

Coastal Water Temperatures

Place Temperature
No Stations Reporting

Nearby Weather Stations